createdAt,value
2018-07-02T00:00:51.169Z,101282.56
2018-07-02T00:03:22.718Z,101284.27
2018-07-02T00:06:09.661Z,101287.73
2018-07-02T00:08:40.223Z,101293.77
2018-07-02T00:11:12.464Z,101289.83
2018-07-02T00:13:43.807Z,101291.97
2018-07-02T00:16:13.080Z,101284.50
2018-07-02T00:18:44.763Z,101287.52
2018-07-02T00:21:15.537Z,101290.97
2018-07-02T00:23:46.910Z,101290.02
2018-07-02T00:26:17.103Z,101289.55
2018-07-02T00:28:46.433Z,101284.20
2018-07-02T00:31:16.402Z,101276.75
2018-07-02T00:33:46.955Z,101287.22
2018-07-02T00:36:18.875Z,101283.75
2018-07-02T00:38:50.653Z,101290.25
2018-07-02T00:41:20.735Z,101287.14
2018-07-02T00:43:51.985Z,101286.21
2018-07-02T00:46:21.252Z,101277.87
2018-07-02T00:48:51.129Z,101280.05
2018-07-02T00:51:21.413Z,101282.62
2018-07-02T00:53:51.539Z,101276.88
2018-07-02T00:56:22.391Z,101275.09
2018-07-02T00:58:52.028Z,101270.66
2018-07-02T01:01:23.374Z,101271.05
2018-07-02T01:03:52.617Z,101267.02
2018-07-02T01:06:23.821Z,101270.52
2018-07-02T01:08:54.163Z,101273.97
2018-07-02T01:11:25.897Z,101276.09
2018-07-02T01:13:55.813Z,101268.98
2018-07-02T01:16:25.320Z,101273.73
2018-07-02T01:18:56.649Z,101267.15
2018-07-02T01:21:25.880Z,101271.42
2018-07-02T01:23:55.137Z,101266.59
2018-07-02T01:26:25.213Z,101259.19
2018-07-02T01:28:54.369Z,101260.05
2018-07-02T01:31:23.501Z,101251.34
2018-07-02T01:33:52.713Z,101249.61
2018-07-02T01:36:21.828Z,101257.86
2018-07-02T01:38:50.999Z,101256.04
2018-07-02T01:41:20.197Z,101258.20
2018-07-02T01:44:52.439Z,101248.59
2018-07-02T01:47:21.674Z,101253.31
2018-07-02T01:49:51.514Z,101256.70
2018-07-02T01:52:20.737Z,101255.70
2018-07-02T01:54:49.906Z,101259.60
2018-07-02T01:57:19.046Z,101263.49
2018-07-02T01:59:48.240Z,101262.19
2018-07-02T02:02:17.523Z,101264.80
2018-07-02T02:04:46.714Z,101267.02
2018-07-02T02:07:15.909Z,101272.65
2018-07-02T02:09:45.152Z,101266.48
2018-07-02T02:12:14.334Z,101268.64
2018-07-02T02:14:43.545Z,101266.84
2018-07-02T02:17:13.327Z,101269.83
2018-07-02T02:19:42.505Z,101272.72
2018-07-02T02:22:11.699Z,101281.30
2018-07-02T02:24:40.888Z,101280.28
2018-07-02T02:27:10.090Z,101277.16
2018-07-02T02:29:39.352Z,101280.09
2018-07-02T02:32:08.561Z,101273.98
2018-07-02T02:34:37.723Z,101279.18
2018-07-02T02:37:06.938Z,101272.61
2018-07-02T02:39:36.126Z,101258.67
2018-07-02T02:42:05.607Z,101262.13
2018-07-02T02:44:34.764Z,101262.09
2018-07-02T02:47:03.972Z,101266.45
2018-07-02T02:49:33.165Z,101255.95
2018-07-02T02:52:02.412Z,101259.39
2018-07-02T02:54:31.541Z,101260.27
2018-07-02T02:57:00.700Z,101260.77
2018-07-02T02:59:29.893Z,101257.30
2018-07-02T03:01:59.076Z,101255.99
2018-07-02T03:04:28.217Z,101255.14
2018-07-02T03:06:57.411Z,101260.37
2018-07-02T03:09:26.564Z,101253.41
2018-07-02T03:11:55.757Z,101246.42
2018-07-02T03:14:24.972Z,101250.37
2018-07-02T03:16:54.170Z,101246.87
2018-07-02T03:19:23.345Z,101239.49
2018-07-02T03:21:52.491Z,101239.95
2018-07-02T03:24:21.663Z,101245.23
2018-07-02T03:26:50.831Z,101248.80
2018-07-02T03:29:20.043Z,101250.16
2018-07-02T03:31:49.184Z,101248.03
2018-07-02T03:34:18.351Z,101247.67
2018-07-02T03:36:47.534Z,101245.19
2018-07-02T03:39:16.682Z,101245.27
2018-07-02T03:41:45.966Z,101239.77
2018-07-02T03:44:15.167Z,101246.41
2018-07-02T03:46:44.353Z,101252.18
2018-07-02T03:49:13.540Z,101257.49
2018-07-02T03:51:42.749Z,101251.69
2018-07-02T03:54:11.994Z,101247.22
2018-07-02T03:56:41.167Z,101247.48
2018-07-02T03:59:37.006Z,101238.02
2018-07-02T04:02:06.382Z,101230.61
2018-07-02T04:04:35.571Z,101227.23
2018-07-02T04:07:04.794Z,101220.66
2018-07-02T04:09:34.004Z,101215.65
2018-07-02T04:12:03.209Z,101217.13
2018-07-02T04:14:32.397Z,101224.13
2018-07-02T04:17:01.559Z,101222.39
2018-07-02T04:19:30.718Z,101219.34
2018-07-02T04:21:59.962Z,101222.69
2018-07-02T04:24:29.128Z,101217.33
2018-07-02T04:26:58.663Z,101228.73
2018-07-02T04:29:27.856Z,101229.05
2018-07-02T04:31:57.053Z,101225.95
2018-07-02T04:34:32.884Z,101226.63
2018-07-02T04:37:02.135Z,101221.38
2018-07-02T04:39:31.406Z,101228.27
2018-07-02T04:42:00.682Z,101220.75
2018-07-02T04:44:29.907Z,101225.80
2018-07-02T04:46:59.290Z,101227.75
2018-07-02T04:49:28.471Z,101223.11
2018-07-02T04:51:57.626Z,101222.33
2018-07-02T04:54:26.827Z,101217.92
2018-07-02T04:56:56.058Z,101213.08
2018-07-02T04:59:25.341Z,101214.95
2018-07-02T05:01:54.539Z,101215.02
2018-07-02T05:04:23.758Z,101219.20
2018-07-02T05:06:52.941Z,101220.19
2018-07-02T05:09:22.163Z,101224.59
2018-07-02T05:11:51.293Z,101219.63
2018-07-02T05:14:20.447Z,101216.70
2018-07-02T05:16:49.646Z,101210.59
2018-07-02T05:19:18.802Z,101210.30
2018-07-02T05:21:47.966Z,101217.02
2018-07-02T05:24:17.118Z,101219.62
2018-07-02T05:26:46.286Z,101214.41
2018-07-02T05:29:15.490Z,101220.13
2018-07-02T05:31:44.667Z,101220.42
2018-07-02T05:34:13.843Z,101220.22
2018-07-02T05:36:42.998Z,101220.27
2018-07-02T05:39:12.713Z,101214.03
2018-07-02T05:41:41.894Z,101214.34
2018-07-02T05:44:11.107Z,101217.03
2018-07-02T05:46:40.245Z,101215.22
2018-07-02T05:49:09.422Z,101222.42
2018-07-02T05:51:38.622Z,101222.77
2018-07-02T05:54:07.896Z,101219.77
2018-07-02T05:56:37.097Z,101220.75
2018-07-02T05:59:06.249Z,101214.14
2018-07-02T06:01:35.427Z,101212.60
2018-07-02T06:04:04.642Z,101204.33
2018-07-02T06:06:34.497Z,101204.09
2018-07-02T06:09:03.668Z,101207.73
2018-07-02T06:11:32.814Z,101213.29
2018-07-02T06:14:01.996Z,101208.14
2018-07-02T06:16:31.202Z,101209.28
2018-07-02T06:19:00.327Z,101203.06
2018-07-02T06:21:29.672Z,101204.13
2018-07-02T06:23:59.440Z,101203.88
2018-07-02T06:26:28.723Z,101199.83
2018-07-02T06:28:57.986Z,101204.51
2018-07-02T06:31:27.216Z,101200.00
2018-07-02T06:33:56.374Z,101202.27
2018-07-02T06:36:25.556Z,101209.43
2018-07-02T06:38:54.726Z,101208.08
2018-07-02T06:41:23.858Z,101210.75
2018-07-02T06:43:53.021Z,101210.03
2018-07-02T06:46:22.728Z,101212.77
2018-07-02T06:48:51.886Z,101217.14
2018-07-02T06:51:22.153Z,101217.50
2018-07-02T06:53:51.462Z,101211.82
2018-07-02T06:56:20.942Z,101215.30
2018-07-02T06:58:50.141Z,101212.55
2018-07-02T07:01:19.464Z,101210.08
2018-07-02T07:03:48.819Z,101210.17
2018-07-02T07:06:18.059Z,101212.91
2018-07-02T07:08:47.199Z,101215.02
2018-07-02T07:11:16.323Z,101218.69
2018-07-02T07:13:45.482Z,101219.42
2018-07-02T07:16:14.630Z,101220.63
2018-07-02T07:18:43.805Z,101217.15
2018-07-02T07:21:12.989Z,101222.69
2018-07-02T07:23:42.215Z,101214.97
2018-07-02T07:26:11.408Z,101211.65
2018-07-02T07:28:40.588Z,101214.32
2018-07-02T07:31:09.844Z,101211.01
2018-07-02T07:33:38.941Z,101213.00
2018-07-02T07:36:08.121Z,101218.53
2018-07-02T07:38:37.319Z,101205.95
2018-07-02T07:41:06.669Z,101203.20
2018-07-02T07:43:35.874Z,101206.28
2018-07-02T07:46:05.425Z,101208.73
2018-07-02T07:48:34.548Z,101202.77
2018-07-02T07:51:03.784Z,101202.70
2018-07-02T07:53:33.664Z,101217.25
2018-07-02T07:56:02.794Z,101203.73
2018-07-02T07:58:32.162Z,101205.38
2018-07-02T08:01:01.336Z,101199.30
2018-07-02T08:03:30.496Z,101206.13
2018-07-02T08:05:59.644Z,101203.33
2018-07-02T08:08:28.814Z,101202.30
2018-07-02T08:10:57.949Z,101199.45
2018-07-02T08:13:27.121Z,101189.81
2018-07-02T08:15:56.316Z,101181.86
2018-07-02T08:18:25.527Z,101188.51
2018-07-02T08:20:54.722Z,101182.25
2018-07-02T08:23:23.912Z,101185.46
2018-07-02T08:25:53.062Z,101182.98
2018-07-02T08:28:22.268Z,101182.15
2018-07-02T08:30:51.458Z,101182.77
2018-07-02T08:33:20.671Z,101183.66
2018-07-02T08:35:49.892Z,101182.05
2018-07-02T08:38:19.169Z,101168.24
2018-07-02T08:40:48.413Z,101173.08
2018-07-02T08:43:17.615Z,101171.63
2018-07-02T08:45:46.824Z,101160.77
2018-07-02T08:48:16.050Z,101170.13
2018-07-02T08:50:45.496Z,101164.34
2018-07-02T08:53:14.733Z,101162.54
2018-07-02T08:55:44.205Z,101158.61
2018-07-02T08:58:13.452Z,101154.13
2018-07-02T09:00:42.646Z,101151.77
2018-07-02T09:03:11.802Z,101153.64
2018-07-02T09:05:40.970Z,101145.45
2018-07-02T09:08:10.125Z,101137.06
2018-07-02T09:10:39.346Z,101149.62
2018-07-02T09:13:08.535Z,101150.12
2018-07-02T09:15:37.810Z,101151.31
2018-07-02T09:18:06.950Z,101135.59
2018-07-02T09:20:36.142Z,101136.88
2018-07-02T09:23:05.403Z,101129.92
2018-07-02T09:25:34.522Z,101126.06
2018-07-02T09:28:10.513Z,101127.91
2018-07-02T09:30:39.893Z,101125.91
2018-07-02T09:33:09.094Z,101120.89
2018-07-02T09:35:38.524Z,101118.24
2018-07-02T09:38:07.591Z,101120.44
2018-07-02T09:40:36.960Z,101112.33
2018-07-02T09:43:06.172Z,101113.02
2018-07-02T09:45:35.945Z,101120.24
2018-07-02T09:48:05.174Z,101115.30
2018-07-02T09:50:34.255Z,101107.66
2018-07-02T09:53:03.417Z,101118.33
2018-07-02T09:55:32.598Z,101111.66
2018-07-02T09:58:02.192Z,101106.57
2018-07-02T10:00:31.349Z,101106.53
2018-07-02T10:03:01.027Z,101113.17
2018-07-02T10:05:30.288Z,101110.63
2018-07-02T10:07:59.436Z,101107.30
2018-07-02T10:10:28.596Z,101112.39
2018-07-02T10:12:57.917Z,101114.89
2018-07-02T10:15:27.278Z,101106.16
2018-07-02T10:17:56.414Z,101114.45
2018-07-02T10:20:25.627Z,101111.44
2018-07-02T10:22:54.889Z,101107.55
2018-07-02T10:25:24.077Z,101111.92
2018-07-02T10:27:53.313Z,101104.73
2018-07-02T10:30:22.555Z,101098.30
2018-07-02T10:32:51.723Z,101104.02
2018-07-02T10:35:20.929Z,101107.00
2018-07-02T10:37:50.161Z,101103.17
2018-07-02T10:40:19.358Z,101104.13
2018-07-02T10:42:48.582Z,101098.91
2018-07-02T10:45:17.735Z,101099.72
2018-07-02T10:47:46.896Z,101096.86
2018-07-02T10:50:16.119Z,101101.97
2018-07-02T10:52:46.434Z,101098.17
2018-07-02T10:55:15.654Z,101102.04
2018-07-02T10:57:44.841Z,101092.38
2018-07-02T11:00:14.674Z,101097.55
2018-07-02T11:02:43.873Z,101092.78
2018-07-02T11:05:13.000Z,101098.83
2018-07-02T11:07:42.226Z,101094.52
2018-07-02T11:10:11.402Z,101082.66
2018-07-02T11:12:40.565Z,101082.14
2018-07-02T11:15:09.723Z,101086.83
2018-07-02T11:17:38.929Z,101085.60
2018-07-02T11:20:08.097Z,101084.23
2018-07-02T11:22:37.269Z,101081.20
2018-07-02T11:25:06.465Z,101078.84
2018-07-02T11:27:35.641Z,101081.60
2018-07-02T11:30:05.498Z,101076.09
2018-07-02T11:32:34.731Z,101077.89
2018-07-02T11:35:03.874Z,101074.27
2018-07-02T11:37:33.517Z,101073.87
2018-07-02T11:40:02.763Z,101075.25
2018-07-02T11:42:32.010Z,101064.34
2018-07-02T11:45:01.293Z,101067.83
2018-07-02T11:47:30.491Z,101061.16
2018-07-02T11:49:59.707Z,101069.79
2018-07-02T11:52:30.565Z,101068.50
2018-07-02T11:54:59.825Z,101062.77
2018-07-02T11:57:29.274Z,101063.57
2018-07-02T11:59:58.468Z,101065.05
2018-07-02T12:02:27.698Z,101060.50
2018-07-02T12:04:56.900Z,101055.64
2018-07-02T12:07:26.096Z,101047.22
2018-07-02T12:09:55.308Z,101046.15
2018-07-02T12:12:24.479Z,101044.84
2018-07-02T12:14:53.688Z,101052.53
2018-07-02T12:17:22.850Z,101050.05
2018-07-02T12:19:51.994Z,101051.97
2018-07-02T12:22:21.182Z,101056.05
2018-07-02T12:24:50.402Z,101052.34
2018-07-02T12:27:19.648Z,101053.59
2018-07-02T12:29:49.047Z,101051.63
2018-07-02T12:32:18.212Z,101048.21
2018-07-02T12:34:47.368Z,101047.96
2018-07-02T12:37:16.572Z,101042.71
2018-07-02T12:39:45.788Z,101041.98
2018-07-02T12:42:14.956Z,101039.84
2018-07-02T12:44:44.160Z,101047.61
2018-07-02T12:47:13.348Z,101039.71
2018-07-02T12:49:42.576Z,101046.60
2018-07-02T12:52:11.760Z,101050.17
2018-07-02T12:54:40.963Z,101043.48
2018-07-02T12:57:10.265Z,101042.97
2018-07-02T12:59:39.503Z,101033.13
2018-07-02T13:02:08.672Z,101028.38
2018-07-02T13:04:37.881Z,101025.39
2018-07-02T13:07:07.247Z,101022.58
2018-07-02T13:09:36.462Z,101024.17
2018-07-02T13:12:05.691Z,101017.42
2018-07-02T13:14:34.946Z,101018.45
2018-07-02T13:17:04.156Z,101022.45
2018-07-02T13:19:33.354Z,101012.80
2018-07-02T13:22:02.601Z,101013.16
2018-07-02T13:24:31.783Z,101015.17
2018-07-02T13:27:01.012Z,101017.95
2018-07-02T13:29:30.203Z,101007.92
2018-07-02T13:31:59.381Z,101003.84
2018-07-02T13:34:28.552Z,101018.89
2018-07-02T13:36:58.374Z,101010.33
2018-07-02T13:39:27.584Z,101001.70
2018-07-02T13:41:56.878Z,100996.18
2018-07-02T13:44:26.112Z,100991.02
2018-07-02T13:46:55.308Z,100990.17
2018-07-02T13:49:24.555Z,100983.68
2018-07-02T13:51:53.791Z,100992.13
2018-07-02T13:54:22.972Z,100989.63
2018-07-02T13:56:52.188Z,100983.61
2018-07-02T13:59:21.439Z,100978.16
2018-07-02T14:01:50.607Z,100976.33
2018-07-02T14:04:20.285Z,100979.70
2018-07-02T14:06:49.472Z,100981.20
2018-07-02T14:09:18.687Z,100973.98
2018-07-02T14:11:47.862Z,100971.75
2018-07-02T14:14:17.103Z,100966.28
2018-07-02T14:16:46.219Z,100962.69
2018-07-02T14:19:15.944Z,100957.45
2018-07-02T14:21:45.377Z,100950.14
2018-07-02T14:24:14.610Z,100950.25
2018-07-02T14:26:43.785Z,100951.78
2018-07-02T14:29:12.947Z,100951.08
2018-07-02T14:31:42.106Z,100954.90
2018-07-02T14:34:11.240Z,100954.52
2018-07-02T14:36:40.414Z,100950.41
2018-07-02T14:39:12.237Z,100964.89
2018-07-02T14:41:41.722Z,100960.20
2018-07-02T14:44:10.910Z,100954.86
2018-07-02T14:46:40.942Z,100954.52
2018-07-02T14:49:10.111Z,100951.63
2018-07-02T14:51:39.316Z,100946.29
2018-07-02T14:54:08.574Z,100947.22
2018-07-02T14:56:37.729Z,100946.80
2018-07-02T14:59:06.920Z,100939.72
2018-07-02T15:01:36.146Z,100939.85
2018-07-02T15:04:05.704Z,100943.74
2018-07-02T15:06:35.501Z,100936.94
2018-07-02T15:09:08.114Z,100928.70
2018-07-02T15:11:37.395Z,100919.77
2018-07-02T15:14:06.768Z,100921.35
2018-07-02T15:16:35.898Z,100917.14
2018-07-02T15:19:05.127Z,100922.41
2018-07-02T15:21:34.313Z,100924.78
2018-07-02T15:24:03.854Z,100923.28
2018-07-02T15:26:33.466Z,100918.98
2018-07-02T15:29:02.684Z,100924.22
2018-07-02T15:31:31.815Z,100920.33
2018-07-02T15:34:01.021Z,100918.52
2018-07-02T15:36:30.185Z,100917.79
2018-07-02T15:38:59.437Z,100919.25
2018-07-02T15:41:28.706Z,100920.19
2018-07-02T15:43:57.814Z,100916.57
2018-07-02T15:46:27.158Z,100921.13
2018-07-02T15:48:56.457Z,100915.44
2018-07-02T15:51:25.641Z,100919.13
2018-07-02T15:53:55.045Z,100918.83
2018-07-02T15:56:24.927Z,100912.38
2018-07-02T15:58:54.569Z,100922.54
2018-07-02T16:01:24.067Z,100919.84
2018-07-02T16:03:53.273Z,100920.40
2018-07-02T16:06:22.587Z,100910.97
2018-07-02T16:08:51.836Z,100907.94
2018-07-02T16:11:21.005Z,100907.30
2018-07-02T16:13:50.150Z,100913.85
2018-07-02T16:16:19.307Z,100910.45
2018-07-02T16:18:48.524Z,100905.20
2018-07-02T16:21:17.706Z,100905.06
2018-07-02T16:23:46.860Z,100908.88
2018-07-02T16:26:16.047Z,100899.48
2018-07-02T16:28:45.230Z,100894.94
2018-07-02T16:31:14.496Z,100904.80
2018-07-02T16:33:43.684Z,100903.43
2018-07-02T16:36:12.836Z,100902.10
2018-07-02T16:38:42.004Z,100899.62
2018-07-02T16:41:11.154Z,100893.07
2018-07-02T16:43:40.300Z,100897.23
2018-07-02T16:46:09.924Z,100897.36
2018-07-02T16:48:39.166Z,100897.95
2018-07-02T16:51:08.454Z,100895.80
2018-07-02T16:53:37.810Z,100896.80
2018-07-02T16:56:07.825Z,100894.19
2018-07-02T16:58:37.066Z,100894.99
2018-07-02T17:01:07.014Z,100890.62
2018-07-02T17:03:36.230Z,100888.34
2018-07-02T17:08:33.846Z,100890.91
2018-07-02T17:11:03.035Z,100888.17
2018-07-02T17:13:32.265Z,100883.88
2018-07-02T17:16:01.411Z,100882.74
2018-07-02T17:18:30.550Z,100881.11
2018-07-02T17:20:59.769Z,100887.79
2018-07-02T17:23:28.921Z,100881.51
2018-07-02T17:25:58.102Z,100880.64
2018-07-02T17:28:27.357Z,100883.05
2018-07-02T17:30:56.469Z,100878.77
2018-07-02T17:33:25.637Z,100884.98
2018-07-02T17:35:54.798Z,100881.37
2018-07-02T17:38:23.946Z,100882.31
2018-07-02T17:40:53.099Z,100877.90
2018-07-02T17:43:22.934Z,100881.58
2018-07-02T17:45:52.324Z,100879.47
2018-07-02T17:48:21.518Z,100876.06
2018-07-02T17:50:50.719Z,100865.77
2018-07-02T17:53:19.927Z,100877.69
2018-07-02T17:55:49.196Z,100870.27
2018-07-02T17:58:18.359Z,100865.31
2018-07-02T18:00:47.556Z,100871.05
2018-07-02T18:03:16.669Z,100871.64
2018-07-02T18:05:45.906Z,100869.84
2018-07-02T18:08:15.118Z,100877.39
2018-07-02T18:10:44.827Z,100871.21
2018-07-02T18:13:14.012Z,100872.16
2018-07-02T18:15:43.633Z,100871.39
2018-07-02T18:18:12.783Z,100874.97
2018-07-02T18:20:42.034Z,100874.14
2018-07-02T18:23:11.263Z,100868.95
2018-07-02T18:25:42.282Z,100872.62
2018-07-02T18:28:11.645Z,100863.79
2018-07-02T18:30:41.022Z,100862.52
2018-07-02T18:33:10.374Z,100866.95
2018-07-02T18:35:39.727Z,100860.34
2018-07-02T18:38:09.104Z,100859.52
2018-07-02T18:40:38.199Z,100867.48
2018-07-02T18:43:07.417Z,100870.09
2018-07-02T18:45:37.146Z,100878.04
2018-07-02T18:48:06.704Z,100876.23
2018-07-02T18:50:35.854Z,100876.19
2018-07-02T18:53:04.995Z,100873.48
2018-07-02T18:55:34.181Z,100878.70
2018-07-02T18:58:03.897Z,100882.09
2018-07-02T19:00:33.822Z,100882.41
2018-07-02T19:03:03.846Z,100884.45
2018-07-02T19:05:33.776Z,100890.45
2018-07-02T19:08:03.956Z,100885.47
2018-07-02T19:10:33.911Z,100885.43
2018-07-02T19:13:03.303Z,100893.69
2018-07-02T19:15:33.002Z,100894.92
2018-07-02T19:18:02.369Z,100895.58
2018-07-02T19:20:32.163Z,100894.48
2018-07-02T19:23:01.807Z,100888.95
2018-07-02T19:25:31.329Z,100893.66
2018-07-02T19:28:00.513Z,100899.20
2018-07-02T19:30:29.849Z,100899.95
2018-07-02T19:32:59.251Z,100901.11
2018-07-02T19:35:28.885Z,100903.94
2018-07-02T19:37:58.376Z,100906.66
2018-07-02T19:40:27.952Z,100909.48
2018-07-02T19:42:57.521Z,100906.59
2018-07-02T19:45:27.392Z,100909.48
2018-07-02T19:47:56.757Z,100911.56
2018-07-02T19:50:26.231Z,100917.19
2018-07-02T19:52:55.731Z,100920.02
2018-07-02T19:55:25.548Z,100921.54
2018-07-02T19:57:54.992Z,100915.59
2018-07-02T20:00:24.779Z,100921.91
2018-07-02T20:02:54.431Z,100923.44
2018-07-02T20:05:24.190Z,100924.45
2018-07-02T20:07:54.665Z,100921.98
2018-07-02T20:10:24.070Z,100928.23
2018-07-02T20:12:53.571Z,100925.69
2018-07-02T20:15:23.413Z,100931.55
2018-07-02T20:17:52.959Z,100931.69
2018-07-02T20:20:22.153Z,100934.05
2018-07-02T20:22:52.090Z,100940.31
2018-07-02T20:25:21.596Z,100932.52
2018-07-02T20:27:50.747Z,100936.53
2018-07-02T20:30:20.247Z,100932.20
2018-07-02T20:32:49.505Z,100933.16
2018-07-02T20:35:18.721Z,100935.44
2018-07-02T20:37:48.122Z,100932.46
2018-07-02T20:40:17.876Z,100933.48
2018-07-02T20:42:47.319Z,100928.71
2018-07-02T20:45:16.974Z,100929.23
2018-07-02T20:47:47.808Z,100920.86
2018-07-02T20:50:18.018Z,100928.45
2018-07-02T20:52:48.610Z,100927.19
2018-07-02T20:55:18.063Z,100930.30
2018-07-02T20:57:47.415Z,100925.48
2018-07-02T21:00:16.882Z,100933.98
2018-07-02T21:02:46.366Z,100931.02
2018-07-02T21:05:16.039Z,100936.89
2018-07-02T21:07:46.111Z,100932.58
2018-07-02T21:10:16.428Z,100937.99
2018-07-02T21:12:46.047Z,100937.67
2018-07-02T21:15:16.183Z,100933.84
2018-07-02T21:17:45.923Z,100934.78
2018-07-02T21:20:16.304Z,100934.88
2018-07-02T21:22:46.768Z,100943.27
2018-07-02T21:25:16.831Z,100941.54
2018-07-02T21:27:46.954Z,100948.13
2018-07-02T21:30:16.531Z,100943.72
2018-07-02T21:32:46.330Z,100939.77
2018-07-02T21:35:15.772Z,100944.59
2018-07-02T21:37:46.029Z,100945.04
2018-07-02T21:40:15.284Z,100940.66
2018-07-02T21:42:44.554Z,100945.52
2018-07-02T21:45:13.765Z,100941.11
2018-07-02T21:47:43.819Z,100939.36
2018-07-02T21:50:13.633Z,100939.36
2018-07-02T21:52:43.794Z,100940.28
2018-07-02T21:55:13.359Z,100942.55
2018-07-02T21:57:43.696Z,100948.30
2018-07-02T22:00:14.743Z,100949.66
2018-07-02T22:02:44.657Z,100950.16
2018-07-02T22:05:14.930Z,100952.84
2018-07-02T22:07:44.828Z,100952.01
2018-07-02T22:10:14.263Z,100949.03
2018-07-02T22:12:43.642Z,100949.53
2018-07-02T22:15:13.942Z,100947.80
2018-07-02T22:17:43.960Z,100943.05
2018-07-02T22:20:13.394Z,100946.61
2018-07-02T22:22:42.767Z,100944.02
2018-07-02T22:25:12.628Z,100942.33
2018-07-02T22:27:42.036Z,100943.69
2018-07-02T22:30:11.554Z,100941.55
2018-07-02T22:32:41.160Z,100944.69
2018-07-02T22:35:10.366Z,100939.45
2018-07-02T22:37:39.506Z,100948.67
2018-07-02T22:40:08.652Z,100941.66
2018-07-02T22:42:37.849Z,100943.00
2018-07-02T22:45:07.105Z,100943.94
2018-07-02T22:47:36.255Z,100940.02
2018-07-02T22:50:05.518Z,100940.05
2018-07-02T22:52:34.857Z,100940.08
2018-07-02T22:55:04.043Z,100940.98
2018-07-02T22:57:33.197Z,100932.66
2018-07-02T23:00:02.359Z,100937.06
2018-07-02T23:02:31.622Z,100937.04
2018-07-02T23:05:00.823Z,100935.29
2018-07-02T23:07:31.097Z,100937.06
2018-07-02T23:10:00.274Z,100944.98
2018-07-02T23:12:29.418Z,100945.42
2018-07-02T23:14:58.584Z,100945.44
2018-07-02T23:17:27.756Z,100943.73
2018-07-02T23:19:57.037Z,100941.13
2018-07-02T23:22:33.362Z,100946.86
2018-07-02T23:25:02.566Z,100943.40
2018-07-02T23:27:31.718Z,100951.77
2018-07-02T23:30:01.094Z,100942.55
2018-07-02T23:32:30.297Z,100943.88
2018-07-02T23:34:59.479Z,100946.52
2018-07-02T23:37:28.678Z,100946.52
2018-07-02T23:39:57.893Z,100939.99
2018-07-02T23:42:27.050Z,100939.57
2018-07-02T23:44:56.289Z,100938.72
2018-07-02T23:47:25.469Z,100937.89
2018-07-02T23:49:54.653Z,100933.96
2018-07-02T23:52:23.803Z,100934.86
2018-07-02T23:54:52.986Z,100931.41
2018-07-02T23:57:22.454Z,100939.33
2018-07-02T23:59:51.585Z,100938.50
